sensor_id;sensor_type;location;lat;lon;timestamp;pressure;altitude;pressure_sealevel;temperature;humidity
59053;BME280;44843;44.728;10.396;2023-05-20T00:01:57;100629.53;;;15.77;100.00
59053;BME280;44843;44.728;10.396;2023-05-20T00:04:22;100626.31;;;15.85;100.00
59053;BME280;44843;44.728;10.396;2023-05-20T00:06:47;100620.72;;;15.90;100.00
59053;BME280;44843;44.728;10.396;2023-05-20T00:09:13;100626.19;;;15.86;100.00
59053;BME280;44843;44.728;10.396;2023-05-20T00:11:38;100619.41;;;15.95;100.00
59053;BME280;44843;44.728;10.396;2023-05-20T00:14:03;100618.09;;;16.01;100.00
59053;BME280;44843;44.728;10.396;2023-05-20T00:16:28;100610.69;;;15.95;100.00
59053;BME280;44843;44.728;10.396;2023-05-20T00:18:54;100610.91;;;15.92;100.00
59053;BME280;44843;44.728;10.396;2023-05-20T00:21:20;100612.69;;;15.91;100.00
59053;BME280;44843;44.728;10.396;2023-05-20T00:23:46;100620.00;;;15.88;100.00
59053;BME280;44843;44.728;10.396;2023-05-20T00:26:11;100604.91;;;15.78;100.00
59053;BME280;44843;44.728;10.396;2023-05-20T00:28:36;100610.16;;;15.78;100.00
59053;BME280;44843;44.728;10.396;2023-05-20T00:31:01;100611.97;;;15.78;100.00
59053;BME280;44843;44.728;10.396;2023-05-20T00:33:26;100604.44;;;15.73;100.00
59053;BME280;44843;44.728;10.396;2023-05-20T00:35:52;100608.97;;;15.71;100.00
59053;BME280;44843;44.728;10.396;2023-05-20T00:38:17;100608.47;;;15.66;100.00
59053;BME280;44843;44.728;10.396;2023-05-20T00:40:42;100604.44;;;15.73;100.00
59053;BME280;44843;44.728;10.396;2023-05-20T00:43:08;100605.41;;;15.72;100.00
59053;BME280;44843;44.728;10.396;2023-05-20T00:45:33;100593.81;;;15.75;100.00
59053;BME280;44843;44.728;10.396;2023-05-20T00:47:58;100594.75;;;15.74;100.00
59053;BME280;44843;44.728;10.396;2023-05-20T00:50:26;100589.09;;;15.67;100.00
59053;BME280;44843;44.728;10.396;2023-05-20T00:52:52;100586.81;;;15.62;100.00
59053;BME280;44843;44.728;10.396;2023-05-20T00:55:19;100585.75;;;15.65;100.00
59053;BME280;44843;44.728;10.396;2023-05-20T00:57:44;100579.94;;;15.73;100.00
59053;BME280;44843;44.728;10.396;2023-05-20T01:00:10;100573.38;;;15.78;100.00
59053;BME280;44843;44.728;10.396;2023-05-20T01:02:35;100576.59;;;15.82;100.00
59053;BME280;44843;44.728;10.396;2023-05-20T01:05:01;100574.81;;;15.82;100.00
59053;BME280;44843;44.728;10.396;2023-05-20T01:07:26;100572.31;;;15.92;100.00
59053;BME280;44843;44.728;10.396;2023-05-20T01:09:51;100567.41;;;15.88;100.00
59053;BME280;44843;44.728;10.396;2023-05-20T01:12:22;100570.50;;;15.81;100.00
59053;BME280;44843;44.728;10.396;2023-05-20T01:14:52;100567.16;;;15.79;100.00
59053;BME280;44843;44.728;10.396;2023-05-20T01:17:20;100565.97;;;15.72;100.00
59053;BME280;44843;44.728;10.396;2023-05-20T01:19:50;100559.75;;;15.73;100.00
59053;BME280;44843;44.728;10.396;2023-05-20T01:22:17;100560.19;;;15.67;100.00
59053;BME280;44843;44.728;10.396;2023-05-20T01:24:43;100551.00;;;15.61;100.00
59053;BME280;44843;44.728;10.396;2023-05-20T01:27:09;100556.34;;;15.60;100.00
59053;BME280;44843;44.728;10.396;2023-05-20T01:29:38;100543.94;;;15.62;100.00
59053;BME280;44843;44.728;10.396;2023-05-20T01:32:19;100547.28;;;15.64;100.00
59053;BME280;44843;44.728;10.396;2023-05-20T01:34:46;100540.94;;;15.55;100.00
59053;BME280;44843;44.728;10.396;2023-05-20T01:37:12;100537.00;;;15.61;100.00
59053;BME280;44843;44.728;10.396;2023-05-20T01:39:38;100541.41;;;15.60;100.00
59053;BME280;44843;44.728;10.396;2023-05-20T01:42:06;100543.31;;;15.58;100.00
59053;BME280;44843;44.728;10.396;2023-05-20T01:44:32;100532.59;;;15.61;100.00
59053;BME280;44843;44.728;10.396;2023-05-20T01:46:58;100536.78;;;15.64;100.00
59053;BME280;44843;44.728;10.396;2023-05-20T01:49:23;100525.66;;;15.60;100.00
59053;BME280;44843;44.728;10.396;2023-05-20T01:51:48;100527.19;;;15.63;100.00
59053;BME280;44843;44.728;10.396;2023-05-20T01:54:14;100528.88;;;15.64;100.00
59053;BME280;44843;44.728;10.396;2023-05-20T01:56:39;100528.53;;;15.69;100.00
59053;BME280;44843;44.728;10.396;2023-05-20T01:59:04;100521.47;;;15.69;100.00
59053;BME280;44843;44.728;10.396;2023-05-20T02:01:30;100523.41;;;15.78;100.00
59053;BME280;44843;44.728;10.396;2023-05-20T02:03:55;100516.25;;;15.80;100.00
59053;BME280;44843;44.728;10.396;2023-05-20T02:06:20;100520.41;;;15.83;100.00
59053;BME280;44843;44.728;10.396;2023-05-20T02:08:45;100515.06;;;15.73;100.00
59053;BME280;44843;44.728;10.396;2023-05-20T02:11:11;100515.50;;;15.67;100.00
59053;BME280;44843;44.728;10.396;2023-05-20T02:13:36;100510.25;;;15.67;100.00
59053;BME280;44843;44.728;10.396;2023-05-20T02:16:01;100515.50;;;15.67;100.00
59053;BME280;44843;44.728;10.396;2023-05-20T02:18:26;100512.16;;;15.65;100.00
59053;BME280;44843;44.728;10.396;2023-05-20T02:20:51;100506.78;;;15.66;100.00
59053;BME280;44843;44.728;10.396;2023-05-20T02:23:17;100498.53;;;15.60;100.00
59053;BME280;44843;44.728;10.396;2023-05-20T02:25:42;100498.53;;;15.60;100.00
59053;BME280;44843;44.728;10.396;2023-05-20T02:28:08;100492.31;;;15.61;100.00
59053;BME280;44843;44.728;10.396;2023-05-20T02:30:35;100481.69;;;15.51;100.00
59053;BME280;44843;44.728;10.396;2023-05-20T02:33:01;100490.03;;;15.56;100.00
59053;BME280;44843;44.728;10.396;2023-05-20T02:35:26;100484.44;;;15.50;100.00
59053;BME280;44843;44.728;10.396;2023-05-20T02:37:51;100485.03;;;15.53;100.00
59053;BME280;44843;44.728;10.396;2023-05-20T02:40:16;100483.59;;;15.49;100.00
59053;BME280;44843;44.728;10.396;2023-05-20T02:42:42;100485.41;;;15.49;100.00
59053;BME280;44843;44.728;10.396;2023-05-20T02:45:07;100492.44;;;15.48;100.00
59053;BME280;44843;44.728;10.396;2023-05-20T02:47:32;100480.97;;;15.49;100.00
59053;BME280;44843;44.728;10.396;2023-05-20T02:49:58;100486.59;;;15.56;100.00
59053;BME280;44843;44.728;10.396;2023-05-20T02:52:23;100487.56;;;15.66;100.00
59053;BME280;44843;44.728;10.396;2023-05-20T02:54:48;100484.47;;;15.72;100.00
59053;BME280;44843;44.728;10.396;2023-05-20T02:57:13;100485.19;;;15.74;100.00
59053;BME280;44843;44.728;10.396;2023-05-20T02:59:39;100479.22;;;15.83;100.00
59053;BME280;44843;44.728;10.396;2023-05-20T03:02:04;100471.91;;;15.76;100.00
59053;BME280;44843;44.728;10.396;2023-05-20T03:04:30;100466.16;;;15.71;100.00
59053;BME280;44843;44.728;10.396;2023-05-20T03:06:55;100464.84;;;15.65;100.00
59053;BME280;44843;44.728;10.396;2023-05-20T03:09:23;100465.69;;;15.65;100.00
59053;BME280;44843;44.728;10.396;2023-05-20T03:11:49;100468.19;;;15.67;100.00
59053;BME280;44843;44.728;10.396;2023-05-20T03:14:15;100466.03;;;15.61;100.00
59053;BME280;44843;44.728;10.396;2023-05-20T03:16:40;100472.63;;;15.55;100.00
59053;BME280;44843;44.728;10.396;2023-05-20T03:19:05;100464.00;;;15.64;100.00
59053;BME280;44843;44.728;10.396;2023-05-20T03:21:31;100462.00;;;15.57;100.00
59053;BME280;44843;44.728;10.396;2023-05-20T03:23:56;100452.41;;;15.56;100.00
59053;BME280;44843;44.728;10.396;2023-05-20T03:26:22;100452.53;;;15.54;100.00
59053;BME280;44843;44.728;10.396;2023-05-20T03:28:47;100443.94;;;15.52;100.00
59053;BME280;44843;44.728;10.396;2023-05-20T03:31:13;100441.09;;;15.44;100.00
59053;BME280;44843;44.728;10.396;2023-05-20T03:33:38;100443.56;;;15.45;100.00
59053;BME280;44843;44.728;10.396;2023-05-20T03:36:04;100443.00;;;15.42;100.00
59053;BME280;44843;44.728;10.396;2023-05-20T03:38:30;100439.50;;;15.30;100.00
59053;BME280;44843;44.728;10.396;2023-05-20T03:40:56;100450.38;;;15.37;100.00
59053;BME280;44843;44.728;10.396;2023-05-20T03:43:21;100447.41;;;15.41;100.00
59053;BME280;44843;44.728;10.396;2023-05-20T03:45:46;100443.81;;;15.54;100.00
59053;BME280;44843;44.728;10.396;2023-05-20T03:48:12;100447.63;;;15.61;100.00
59053;BME280;44843;44.728;10.396;2023-05-20T03:50:37;100447.16;;;15.67;100.00
59053;BME280;44843;44.728;10.396;2023-05-20T03:53:03;100441.19;;;15.76;100.00
59053;BME280;44843;44.728;10.396;2023-05-20T03:55:28;100437.88;;;15.74;100.00
59053;BME280;44843;44.728;10.396;2023-05-20T03:57:53;100432.75;;;15.73;100.00
59053;BME280;44843;44.728;10.396;2023-05-20T04:00:19;100444.06;;;15.62;100.00
59053;BME280;44843;44.728;10.396;2023-05-20T04:02:44;100450.41;;;15.59;100.00
59053;BME280;44843;44.728;10.396;2023-05-20T04:05:10;100446.81;;;15.49;100.00
59053;BME280;44843;44.728;10.396;2023-05-20T04:07:36;100452.41;;;15.56;100.00
59053;BME280;44843;44.728;10.396;2023-05-20T04:10:02;100456.25;;;15.52;100.00
59053;BME280;44843;44.728;10.396;2023-05-20T04:12:28;100450.25;;;15.50;100.00
59053;BME280;44843;44.728;10.396;2023-05-20T04:15:01;100446.34;;;15.44;100.00
59053;BME280;44843;44.728;10.396;2023-05-20T04:17:28;100449.78;;;15.44;100.00
59053;BME280;44843;44.728;10.396;2023-05-20T04:19:54;100445.72;;;15.52;100.00
59053;BME280;44843;44.728;10.396;2023-05-20T04:22:21;100438.56;;;15.54;100.00
59053;BME280;44843;44.728;10.396;2023-05-20T04:24:46;100440.47;;;15.52;100.00
59053;BME280;44843;44.728;10.396;2023-05-20T04:27:11;100443.22;;;15.50;100.00
59053;BME280;44843;44.728;10.396;2023-05-20T04:29:38;100440.34;;;15.53;100.00
59053;BME280;44843;44.728;10.396;2023-05-20T04:32:06;100434.38;;;15.51;100.00
59053;BME280;44843;44.728;10.396;2023-05-20T04:34:31;100435.81;;;15.44;100.00
59053;BME280;44843;44.728;10.396;2023-05-20T04:36:58;100437.72;;;15.53;100.00
59053;BME280;44843;44.728;10.396;2023-05-20T04:39:24;100437.38;;;15.58;100.00
59053;BME280;44843;44.728;10.396;2023-05-20T04:41:51;100433.19;;;15.66;100.00
59053;BME280;44843;44.728;10.396;2023-05-20T04:44:18;100431.63;;;15.64;100.00
59053;BME280;44843;44.728;10.396;2023-05-20T04:46:44;100429.47;;;15.69;100.00
59053;BME280;44843;44.728;10.396;2023-05-20T04:49:10;100430.09;;;15.73;100.00
59053;BME280;44843;44.728;10.396;2023-05-20T04:51:36;100419.09;;;15.79;100.00
59053;BME280;44843;44.728;10.396;2023-05-20T04:54:02;100422.22;;;15.73;100.00
59053;BME280;44843;44.728;10.396;2023-05-20T04:56:27;100428.41;;;15.72;100.00
59053;BME280;44843;44.728;10.396;2023-05-20T04:58:53;100423.38;;;15.69;100.00
59053;BME280;44843;44.728;10.396;2023-05-20T05:01:18;100427.59;;;15.71;100.00
59053;BME280;44843;44.728;10.396;2023-05-20T05:03:43;100428.03;;;15.65;100.00
59053;BME280;44843;44.728;10.396;2023-05-20T05:06:09;100424.84;;;15.61;100.00
59053;BME280;44843;44.728;10.396;2023-05-20T05:08:34;100424.47;;;15.66;100.00
59053;BME280;44843;44.728;10.396;2023-05-20T05:11:00;100428.91;;;15.65;100.00
59053;BME280;44843;44.728;10.396;2023-05-20T05:13:25;100418.38;;;15.65;100.00
59053;BME280;44843;44.728;10.396;2023-05-20T05:15:58;100425.56;;;15.63;100.00
59053;BME280;44843;44.728;10.396;2023-05-20T05:18:23;100418.84;;;15.59;100.00
59053;BME280;44843;44.728;10.396;2023-05-20T05:20:49;100421.00;;;15.54;100.00
59053;BME280;44843;44.728;10.396;2023-05-20T05:23:14;100421.59;;;15.58;100.00
59053;BME280;44843;44.728;10.396;2023-05-20T05:25:40;100413.63;;;15.48;100.00
59053;BME280;44843;44.728;10.396;2023-05-20T05:28:05;100420.16;;;15.54;100.00
59053;BME280;44843;44.728;10.396;2023-05-20T05:30:30;100414.09;;;15.53;100.00
59053;BME280;44843;44.728;10.396;2023-05-20T05:32:56;100418.25;;;15.56;100.00
59053;BME280;44843;44.728;10.396;2023-05-20T05:35:21;100416.72;;;15.53;100.00
59053;BME280;44843;44.728;10.396;2023-05-20T05:37:47;100413.50;;;15.72;100.00
59053;BME280;44843;44.728;10.396;2023-05-20T05:40:12;100412.50;;;15.84;100.00
59053;BME280;44843;44.728;10.396;2023-05-20T05:42:38;100406.66;;;15.92;100.00
59053;BME280;44843;44.728;10.396;2023-05-20T05:45:03;100410.09;;;15.93;100.00
59053;BME280;44843;44.728;10.396;2023-05-20T05:47:29;100412.69;;;16.04;100.00
59053;BME280;44843;44.728;10.396;2023-05-20T05:49:57;100415.25;;;15.94;100.00
59053;BME280;44843;44.728;10.396;2023-05-20T05:52:22;100416.97;;;15.73;100.00
59053;BME280;44843;44.728;10.396;2023-05-20T05:54:48;100419.81;;;15.81;100.00
59053;BME280;44843;44.728;10.396;2023-05-20T05:57:13;100411.81;;;15.71;100.00
59053;BME280;44843;44.728;10.396;2023-05-20T05:59:39;100413.50;;;15.72;100.00
59053;BME280;44843;44.728;10.396;2023-05-20T06:02:04;100422.94;;;15.75;100.00
59053;BME280;44843;44.728;10.396;2023-05-20T06:04:30;100413.25;;;15.75;100.00
59053;BME280;44843;44.728;10.396;2023-05-20T06:06:55;100415.16;;;15.73;100.00
59053;BME280;44843;44.728;10.396;2023-05-20T06:09:20;100407.63;;;15.69;100.00
59053;BME280;44843;44.728;10.396;2023-05-20T06:11:46;100406.19;;;15.76;100.00
59053;BME280;44843;44.728;10.396;2023-05-20T06:14:11;100409.41;;;15.79;100.00
59053;BME280;44843;44.728;10.396;2023-05-20T06:16:37;100410.97;;;15.82;100.00
59053;BME280;44843;44.728;10.396;2023-05-20T06:19:02;100409.31;;;15.81;100.00
59053;BME280;44843;44.728;10.396;2023-05-20T06:21:29;100407.25;;;15.84;100.00
59053;BME280;44843;44.728;10.396;2023-05-20T06:23:55;100413.47;;;15.83;100.00
59053;BME280;44843;44.728;10.396;2023-05-20T06:26:20;100410.00;;;15.83;100.00
59053;BME280;44843;44.728;10.396;2023-05-20T06:28:46;100409.78;;;15.75;100.00
59053;BME280;44843;44.728;10.396;2023-05-20T06:31:12;100410.84;;;15.83;100.00
59053;BME280;44843;44.728;10.396;2023-05-20T06:33:37;100415.25;;;15.94;100.00
59053;BME280;44843;44.728;10.396;2023-05-20T06:36:03;100404.69;;;16.05;100.00
59053;BME280;44843;44.728;10.396;2023-05-20T06:38:29;100405.53;;;16.06;100.00
59053;BME280;44843;44.728;10.396;2023-05-20T06:40:55;100416.16;;;16.04;100.00
59053;BME280;44843;44.728;10.396;2023-05-20T06:43:20;100411.63;;;16.06;100.00
59053;BME280;44843;44.728;10.396;2023-05-20T06:45:46;100422.47;;;16.13;100.00
59053;BME280;44843;44.728;10.396;2023-05-20T06:48:11;100416.38;;;16.13;100.00
59053;BME280;44843;44.728;10.396;2023-05-20T06:50:37;100411.53;;;15.97;100.00
59053;BME280;44843;44.728;10.396;2023-05-20T06:53:02;100406.63;;;16.03;100.00
59053;BME280;44843;44.728;10.396;2023-05-20T06:55:28;100411.63;;;16.06;100.00
59053;BME280;44843;44.728;10.396;2023-05-20T06:57:54;100408.88;;;16.08;100.00
59053;BME280;44843;44.728;10.396;2023-05-20T07:00:19;100422.13;;;16.06;100.00
59053;BME280;44843;44.728;10.396;2023-05-20T07:02:45;100414.75;;;16.00;100.00
59053;BME280;44843;44.728;10.396;2023-05-20T07:05:10;100409.38;;;16.02;100.00
59053;BME280;44843;44.728;10.396;2023-05-20T07:07:36;100408.41;;;16.03;100.00
59053;BME280;44843;44.728;10.396;2023-05-20T07:10:01;100411.88;;;16.03;100.00
59053;BME280;44843;44.728;10.396;2023-05-20T07:12:30;100411.16;;;16.01;100.00
59053;BME280;44843;44.728;10.396;2023-05-20T07:14:55;100411.75;;;16.05;100.00
59053;BME280;44843;44.728;10.396;2023-05-20T07:17:20;100413.19;;;15.98;100.00
59053;BME280;44843;44.728;10.396;2023-05-20T07:19:46;100412.13;;;15.89;100.00
59053;BME280;44843;44.728;10.396;2023-05-20T07:22:11;100411.28;;;16.00;100.00
59053;BME280;44843;44.728;10.396;2023-05-20T07:24:36;100411.66;;;15.95;100.00
59053;BME280;44843;44.728;10.396;2023-05-20T07:27:02;100412.31;;;16.09;100.00
59053;BME280;44843;44.728;10.396;2023-05-20T07:29:28;100407.78;;;16.11;100.00
59053;BME280;44843;44.728;10.396;2023-05-20T07:31:53;100412.25;;;15.99;100.00
59053;BME280;44843;44.728;10.396;2023-05-20T07:34:18;100412.31;;;16.09;100.00
59053;BME280;44843;44.728;10.396;2023-05-20T07:36:44;100400.44;;;16.25;100.00
59053;BME280;44843;44.728;10.396;2023-05-20T07:39:10;100400.22;;;16.17;100.00
59053;BME280;44843;44.728;10.396;2023-05-20T07:41:38;100395.34;;;16.13;100.00
59053;BME280;44843;44.728;10.396;2023-05-20T07:44:04;100389.81;;;16.16;100.00
59053;BME280;44843;44.728;10.396;2023-05-20T07:46:30;100392.94;;;16.21;100.00
59053;BME280;44843;44.728;10.396;2023-05-20T07:48:55;100391.84;;;16.23;100.00
59053;BME280;44843;44.728;10.396;2023-05-20T07:51:21;100393.50;;;16.24;100.00
59053;BME280;44843;44.728;10.396;2023-05-20T07:53:46;100400.72;;;16.22;100.00
59053;BME280;44843;44.728;10.396;2023-05-20T07:56:12;100401.53;;;16.23;100.00
59053;BME280;44843;44.728;10.396;2023-05-20T07:58:40;100394.03;;;16.18;100.00
59053;BME280;44843;44.728;10.396;2023-05-20T08:01:05;100399.84;;;16.22;100.00
59053;BME280;44843;44.728;10.396;2023-05-20T08:03:33;100388.13;;;16.26;100.00
59053;BME280;44843;44.728;10.396;2023-05-20T08:05:59;100395.63;;;16.31;100.00
59053;BME280;44843;44.728;10.396;2023-05-20T08:08:24;100397.44;;;16.30;100.00
59053;BME280;44843;44.728;10.396;2023-05-20T08:10:50;100401.75;;;16.31;100.00
59053;BME280;44843;44.728;10.396;2023-05-20T08:13:16;100404.00;;;16.24;100.00
59053;BME280;44843;44.728;10.396;2023-05-20T08:15:41;100403.19;;;16.24;100.00
59053;BME280;44843;44.728;10.396;2023-05-20T08:18:07;100408.72;;;16.21;100.00
59053;BME280;44843;44.728;10.396;2023-05-20T08:20:32;100416.34;;;16.24;100.00
59053;BME280;44843;44.728;10.396;2023-05-20T08:22:58;100407.13;;;16.30;100.00
59053;BME280;44843;44.728;10.396;2023-05-20T08:25:23;100398.59;;;16.37;100.00
59053;BME280;44843;44.728;10.396;2023-05-20T08:27:48;100400.50;;;16.35;100.00
59053;BME280;44843;44.728;10.396;2023-05-20T08:30:14;100402.41;;;16.44;100.00
59053;BME280;44843;44.728;10.396;2023-05-20T08:32:39;100401.09;;;16.39;100.00
59053;BME280;44843;44.728;10.396;2023-05-20T08:35:06;100396.66;;;16.39;100.00
59053;BME280;44843;44.728;10.396;2023-05-20T08:37:32;100392.81;;;16.43;100.00
59053;BME280;44843;44.728;10.396;2023-05-20T08:39:57;100390.84;;;16.36;100.00
59053;BME280;44843;44.728;10.396;2023-05-20T08:42:23;100395.84;;;16.39;100.00
59053;BME280;44843;44.728;10.396;2023-05-20T08:44:50;100401.09;;;16.39;100.00
59053;BME280;44843;44.728;10.396;2023-05-20T08:47:16;100403.47;;;16.42;100.00
59053;BME280;44843;44.728;10.396;2023-05-20T08:49:42;100397.75;;;16.37;100.00
59053;BME280;44843;44.728;10.396;2023-05-20T08:52:08;100394.53;;;16.33;100.00
59053;BME280;44843;44.728;10.396;2023-05-20T08:54:43;100404.63;;;16.28;100.00
59053;BME280;44843;44.728;10.396;2023-05-20T08:57:10;100400.50;;;16.35;100.00
59053;BME280;44843;44.728;10.396;2023-05-20T08:59:40;100393.31;;;16.37;100.00
59053;BME280;44843;44.728;10.396;2023-05-20T09:02:07;100400.84;;;16.42;100.00
59053;BME280;44843;44.728;10.396;2023-05-20T09:04:33;100400.00;;;16.41;100.00
59053;BME280;44843;44.728;10.396;2023-05-20T09:06:58;100406.09;;;16.42;100.00
59053;BME280;44843;44.728;10.396;2023-05-20T09:09:24;100407.41;;;16.47;100.00
59053;BME280;44843;44.728;10.396;2023-05-20T09:11:49;100407.03;;;16.52;100.00
59053;BME280;44843;44.728;10.396;2023-05-20T09:14:14;100409.25;;;16.57;100.00
59053;BME280;44843;44.728;10.396;2023-05-20T09:16:40;100404.28;;;16.54;100.00
59053;BME280;44843;44.728;10.396;2023-05-20T09:19:05;100404.84;;;16.57;100.00
59053;BME280;44843;44.728;10.396;2023-05-20T09:21:31;100412.22;;;16.63;100.00
59053;BME280;44843;44.728;10.396;2023-05-20T09:24:00;100406.84;;;16.65;100.00
59053;BME280;44843;44.728;10.396;2023-05-20T09:26:27;100394.00;;;16.72;100.00
59053;BME280;44843;44.728;10.396;2023-05-20T09:28:57;100393.69;;;16.65;100.00
59053;BME280;44843;44.728;10.396;2023-05-20T09:31:33;100395.66;;;16.52;100.00
59053;BME280;44843;44.728;10.396;2023-05-20T09:34:00;100380.91;;;16.60;100.00
59053;BME280;44843;44.728;10.396;2023-05-20T09:36:28;100379.56;;;16.45;100.00
59053;BME280;44843;44.728;10.396;2023-05-20T09:38:57;100384.31;;;16.51;100.00
59053;BME280;44843;44.728;10.396;2023-05-20T09:41:32;100389.63;;;16.40;100.00
59053;BME280;44843;44.728;10.396;2023-05-20T09:43:58;100377.97;;;16.21;100.00
59053;BME280;44843;44.728;10.396;2023-05-20T09:46:25;100382.75;;;16.27;100.00
59053;BME280;44843;44.728;10.396;2023-05-20T09:48:51;100380.34;;;16.24;100.00
59053;BME280;44843;44.728;10.396;2023-05-20T09:51:16;100383.34;;;16.20;100.00
59053;BME280;44843;44.728;10.396;2023-05-20T09:53:42;100381.97;;;16.37;100.00
59053;BME280;44843;44.728;10.396;2023-05-20T09:56:08;100385.41;;;16.16;100.00
59053;BME280;44843;44.728;10.396;2023-05-20T09:58:35;100384.72;;;16.14;100.00
59053;BME280;44843;44.728;10.396;2023-05-20T10:01:01;100388.13;;;16.26;100.00
59053;BME280;44843;44.728;10.396;2023-05-20T10:03:26;100386.50;;;16.14;100.00
59053;BME280;44843;44.728;10.396;2023-05-20T10:06:22;100391.09;;;15.89;100.00
59053;BME280;44843;44.728;10.396;2023-05-20T10:09:23;100387.03;;;15.85;100.00
59053;BME280;44843;44.728;10.396;2023-05-20T10:20:20;100368.53;;;16.19;100.00
59053;BME280;44843;44.728;10.396;2023-05-20T10:22:57;100365.19;;;16.17;100.00
59053;BME280;44843;44.728;10.396;2023-05-20T10:25:26;100372.38;;;16.15;100.00
59053;BME280;44843;44.728;10.396;2023-05-20T10:28:07;100366.00;;;15.85;100.00
59053;BME280;44843;44.728;10.396;2023-05-20T10:30:33;100357.59;;;16.02;100.00
59053;BME280;44843;44.728;10.396;2023-05-20T10:33:03;100354.19;;;16.23;100.00
59053;BME280;44843;44.728;10.396;2023-05-20T10:35:29;100360.00;;;16.26;100.00
59053;BME280;44843;44.728;10.396;2023-05-20T10:38:07;100362.94;;;15.80;100.00
59053;BME280;44843;44.728;10.396;2023-05-20T10:40:33;100355.34;;;15.98;100.00
59053;BME280;44843;44.728;10.396;2023-05-20T10:43:11;100370.19;;;16.20;100.00
59053;BME280;44843;44.728;10.396;2023-05-20T10:45:49;100367.50;;;16.10;100.00
59053;BME280;44843;44.728;10.396;2023-05-20T10:50:52;100363.72;;;16.24;100.00
59053;BME280;44843;44.728;10.396;2023-05-20T10:53:21;100363.66;;;16.14;100.00
59053;BME280;44843;44.728;10.396;2023-05-20T10:55:48;100369.50;;;16.18;100.00
59053;BME280;44843;44.728;10.396;2023-05-20T10:58:17;100373.53;;;16.22;100.00
59053;BME280;44843;44.728;10.396;2023-05-20T11:00:47;100365.19;;;16.17;100.00
59053;BME280;44843;44.728;10.396;2023-05-20T11:03:13;100362.31;;;16.20;100.00
59053;BME280;44843;44.728;10.396;2023-05-20T11:05:39;100355.97;;;16.22;100.00
59053;BME280;44843;44.728;10.396;2023-05-20T11:08:07;100353.78;;;16.27;100.00
59053;BME280;44843;44.728;10.396;2023-05-20T11:10:34;100344.38;;;16.25;100.00
59053;BME280;44843;44.728;10.396;2023-05-20T11:13:01;100340.13;;;16.34;100.00
59053;BME280;44843;44.728;10.396;2023-05-20T11:15:27;100342.63;;;16.56;100.00
59053;BME280;44843;44.728;10.396;2023-05-20T11:17:53;100343.06;;;16.61;100.00
59053;BME280;44843;44.728;10.396;2023-05-20T11:20:20;100350.97;;;16.61;100.00
59053;BME280;44843;44.728;10.396;2023-05-20T11:22:46;100345.59;;;16.63;100.00
59053;BME280;44843;44.728;10.396;2023-05-20T11:25:11;100357.09;;;16.62;100.00
59053;BME280;44843;44.728;10.396;2023-05-20T11:27:40;100360.22;;;16.56;100.00
59053;BME280;44843;44.728;10.396;2023-05-20T11:30:06;100362.28;;;16.52;100.00
59053;BME280;44843;44.728;10.396;2023-05-20T11:32:32;100361.34;;;16.53;100.00
59053;BME280;44843;44.728;10.396;2023-05-20T11:34:57;100349.69;;;16.56;100.00
59053;BME280;44843;44.728;10.396;2023-05-20T11:37:23;100355.50;;;16.17;100.00
59053;BME280;44843;44.728;10.396;2023-05-20T11:40:01;100349.13;;;16.31;100.00
59053;BME280;44843;44.728;10.396;2023-05-20T11:42:27;100348.28;;;16.31;100.00
59053;BME280;44843;44.728;10.396;2023-05-20T11:44:52;100355.63;;;16.16;100.00
59053;BME280;44843;44.728;10.396;2023-05-20T11:47:23;100358.63;;;16.11;100.00
59053;BME280;44843;44.728;10.396;2023-05-20T11:49:51;100341.25;;;16.20;100.00
59053;BME280;44843;44.728;10.396;2023-05-20T11:52:17;100335.19;;;16.19;100.00
59053;BME280;44843;44.728;10.396;2023-05-20T11:54:42;100342.06;;;16.32;100.00
59053;BME280;44843;44.728;10.396;2023-05-20T11:57:10;100339.09;;;16.46;100.00
59053;BME280;44843;44.728;10.396;2023-05-20T11:59:36;100336.78;;;16.53;100.00
59053;BME280;44843;44.728;10.396;2023-05-20T12:02:01;100334.94;;;16.64;100.00
59053;BME280;44843;44.728;10.396;2023-05-20T12:04:27;100333.00;;;16.66;100.00
59053;BME280;44843;44.728;10.396;2023-05-20T12:06:52;100329.81;;;16.84;100.00
59053;BME280;44843;44.728;10.396;2023-05-20T12:09:17;100327.47;;;16.91;100.00
59053;BME280;44843;44.728;10.396;2023-05-20T12:11:43;100335.22;;;16.92;100.00
59053;BME280;44843;44.728;10.396;2023-05-20T12:14:09;100332.28;;;16.85;100.00
59053;BME280;44843;44.728;10.396;2023-05-20T12:16:36;100324.25;;;16.87;100.00
59053;BME280;44843;44.728;10.396;2023-05-20T12:19:02;100330.81;;;16.72;100.00
59053;BME280;44843;44.728;10.396;2023-05-20T12:21:28;100334.09;;;16.64;100.00
59053;BME280;44843;44.728;10.396;2023-05-20T12:23:53;100334.47;;;16.59;100.00
59053;BME280;44843;44.728;10.396;2023-05-20T12:26:28;100338.97;;;16.68;100.00
59053;BME280;44843;44.728;10.396;2023-05-20T12:28:54;100336.97;;;16.61;100.00
59053;BME280;44843;44.728;10.396;2023-05-20T12:31:20;100334.94;;;16.64;100.00
59053;BME280;44843;44.728;10.396;2023-05-20T12:33:45;100342.00;;;16.64;100.00
59053;BME280;44843;44.728;10.396;2023-05-20T12:36:11;100338.19;;;16.57;100.00
59053;BME280;44843;44.728;10.396;2023-05-20T12:38:37;100338.28;;;16.66;100.00